createdAt,value
2019-03-31T00:00:08.520Z,30.67
2019-03-31T00:02:39.590Z,32.33
2019-03-31T00:05:08.953Z,30.20
2019-03-31T00:07:38.252Z,33.93
2019-03-31T00:10:08.861Z,32.67
2019-03-31T00:12:38.179Z,32.00
2019-03-31T00:15:08.480Z,32.50
2019-03-31T00:17:38.077Z,30.57
2019-03-31T00:20:08.154Z,38.60
2019-03-31T00:22:37.469Z,34.10
2019-03-31T00:25:07.420Z,35.63
2019-03-31T00:27:36.742Z,37.30
2019-03-31T00:30:07.282Z,29.80
2019-03-31T00:32:36.594Z,30.87
2019-03-31T00:35:06.027Z,30.10
2019-03-31T00:37:35.332Z,27.20
2019-03-31T00:40:06.481Z,33.83
2019-03-31T00:42:36.096Z,32.17
2019-03-31T00:45:06.940Z,34.60
2019-03-31T00:47:37.066Z,27.17
2019-03-31T00:50:07.301Z,30.67
2019-03-31T00:52:36.608Z,27.37
2019-03-31T00:55:06.351Z,26.67
2019-03-31T00:57:35.680Z,28.33
2019-03-31T01:00:08.157Z,28.32
2019-03-31T01:02:39.516Z,29.63
2019-03-31T01:05:08.951Z,30.63
2019-03-31T01:07:38.264Z,28.00
2019-03-31T01:10:08.375Z,29.40
2019-03-31T01:12:37.875Z,34.23
2019-03-31T01:15:10.735Z,26.77
2019-03-31T01:17:40.124Z,26.90
2019-03-31T01:20:09.868Z,31.60
2019-03-31T01:22:39.449Z,30.30
2019-03-31T01:25:09.159Z,31.97
2019-03-31T01:27:38.791Z,33.03
2019-03-31T01:30:10.295Z,29.83
2019-03-31T01:32:39.658Z,27.90
2019-03-31T01:35:10.529Z,30.53
2019-03-31T01:37:39.910Z,29.23
2019-03-31T01:40:09.843Z,31.77
2019-03-31T01:42:39.141Z,28.83
2019-03-31T01:45:09.104Z,28.60
2019-03-31T01:47:38.705Z,30.50
2019-03-31T01:50:10.923Z,30.10
2019-03-31T01:52:40.580Z,26.33
2019-03-31T01:55:10.222Z,37.27
2019-03-31T01:57:39.548Z,34.20
2019-03-31T02:00:12.031Z,30.47
2019-03-31T02:02:41.337Z,30.80
2019-03-31T02:05:12.024Z,33.58
2019-03-31T02:07:41.315Z,33.90
2019-03-31T02:10:10.712Z,31.13
2019-03-31T02:12:40.323Z,31.07
2019-03-31T02:15:09.783Z,27.57
2019-03-31T02:17:39.084Z,28.33
2019-03-31T02:20:08.391Z,28.50
2019-03-31T02:22:37.683Z,28.30
2019-03-31T02:25:07.128Z,27.82
2019-03-31T02:27:36.448Z,32.37
2019-03-31T02:30:07.004Z,27.22
2019-03-31T02:32:36.316Z,30.10
2019-03-31T02:35:07.304Z,25.20
2019-03-31T02:37:36.913Z,26.00
2019-03-31T02:40:06.268Z,32.58
2019-03-31T02:42:35.581Z,31.37
2019-03-31T02:45:08.146Z,28.30
2019-03-31T02:47:37.462Z,31.62
2019-03-31T02:50:06.930Z,28.23
2019-03-31T02:52:36.284Z,28.47
2019-03-31T02:55:06.423Z,24.77
2019-03-31T02:57:36.493Z,26.70
2019-03-31T03:00:07.497Z,29.77
2019-03-31T03:02:42.556Z,29.90
2019-03-31T03:05:19.767Z,29.70
2019-03-31T03:07:46.664Z,27.95
2019-03-31T03:10:16.281Z,31.30
2019-03-31T03:12:47.421Z,33.83
2019-03-31T03:15:19.802Z,29.75
2019-03-31T03:17:49.130Z,29.37
2019-03-31T03:20:18.428Z,30.23
2019-03-31T03:22:47.750Z,33.77
2019-03-31T03:25:17.389Z,30.40
2019-03-31T03:27:46.691Z,32.83
2019-03-31T03:30:16.282Z,29.00
2019-03-31T03:33:12.203Z,27.02
2019-03-31T03:35:16.925Z,34.85
2019-03-31T03:37:46.542Z,34.63
2019-03-31T03:40:15.842Z,31.33
2019-03-31T03:42:45.464Z,31.80
2019-03-31T03:45:14.812Z,32.65
2019-03-31T03:47:44.168Z,35.90
2019-03-31T03:50:13.772Z,36.38
2019-03-31T03:52:44.229Z,32.48
2019-03-31T03:55:13.733Z,33.02
2019-03-31T03:57:43.109Z,36.50
2019-03-31T04:00:12.796Z,35.78
2019-03-31T04:02:42.113Z,40.60
2019-03-31T04:05:11.707Z,38.35
2019-03-31T04:07:41.319Z,39.05
2019-03-31T04:10:36.296Z,40.05
2019-03-31T04:13:05.626Z,40.08
2019-03-31T04:15:34.917Z,37.83
2019-03-31T04:18:04.540Z,44.20
2019-03-31T04:20:33.835Z,53.83
2019-03-31T04:23:03.160Z,52.83
2019-03-31T04:25:32.944Z,55.93
2019-03-31T04:28:02.244Z,59.50
2019-03-31T04:30:31.572Z,65.17
2019-03-31T04:33:00.862Z,59.37
2019-03-31T04:35:30.457Z,64.33
2019-03-31T04:38:00.820Z,64.17
2019-03-31T04:40:30.116Z,61.70
2019-03-31T04:42:59.401Z,74.73
2019-03-31T04:45:29.098Z,64.90
2019-03-31T04:47:58.400Z,73.00
2019-03-31T04:50:28.008Z,72.63
2019-03-31T04:52:57.301Z,75.27
2019-03-31T04:55:26.847Z,71.73
2019-03-31T04:57:56.522Z,81.27
2019-03-31T05:00:25.839Z,89.17
2019-03-31T05:02:55.133Z,75.77
2019-03-31T05:05:24.455Z,75.17
2019-03-31T05:07:54.036Z,69.97
2019-03-31T05:10:23.351Z,73.60
2019-03-31T05:12:52.643Z,73.40
2019-03-31T05:15:22.236Z,75.73
2019-03-31T05:17:51.836Z,74.73
2019-03-31T05:20:21.152Z,68.10
2019-03-31T05:22:52.831Z,75.47
2019-03-31T05:25:21.502Z,76.70
2019-03-31T05:27:50.849Z,77.60
2019-03-31T05:30:20.172Z,81.17
2019-03-31T05:32:49.483Z,82.03
2019-03-31T05:35:18.771Z,76.10
2019-03-31T05:37:51.270Z,75.20
2019-03-31T05:40:19.747Z,74.00
2019-03-31T05:42:49.348Z,87.20
2019-03-31T05:45:18.735Z,86.50
2019-03-31T05:47:48.365Z,78.07
2019-03-31T05:50:17.667Z,83.17
2019-03-31T05:52:46.952Z,84.87
2019-03-31T05:55:18.907Z,84.07
2019-03-31T05:57:47.604Z,81.67
2019-03-31T06:00:19.992Z,88.23
2019-03-31T06:02:49.302Z,91.93
2019-03-31T06:05:18.892Z,96.30
2019-03-31T06:07:48.195Z,92.50
2019-03-31T06:10:17.518Z,93.50
2019-03-31T06:12:47.105Z,96.10
2019-03-31T06:15:16.413Z,90.37
2019-03-31T06:17:45.711Z,89.10
2019-03-31T06:20:15.308Z,95.83
2019-03-31T06:22:44.615Z,95.70
2019-03-31T06:25:14.231Z,92.30
2019-03-31T06:27:43.552Z,95.43
2019-03-31T06:30:15.378Z,98.97
2019-03-31T06:32:44.687Z,89.33
2019-03-31T06:35:33.326Z,93.33
2019-03-31T06:38:02.639Z,93.63
2019-03-31T06:40:32.198Z,89.27
2019-03-31T06:43:01.518Z,89.83
2019-03-31T06:45:30.872Z,92.63
2019-03-31T06:48:00.174Z,100.80
2019-03-31T06:50:29.486Z,100.73
2019-03-31T06:52:58.782Z,86.37
2019-03-31T06:55:28.416Z,89.47
2019-03-31T06:57:57.716Z,95.67
2019-03-31T07:00:27.019Z,94.20
2019-03-31T07:02:56.315Z,92.67
2019-03-31T07:05:25.615Z,92.00
2019-03-31T07:07:54.926Z,89.43
2019-03-31T07:10:24.211Z,96.43
2019-03-31T07:12:53.826Z,95.27
2019-03-31T07:15:23.115Z,97.27
2019-03-31T07:17:52.728Z,104.97
2019-03-31T07:20:22.086Z,100.87
2019-03-31T07:22:51.635Z,104.73
2019-03-31T07:25:20.994Z,104.73
2019-03-31T07:27:50.563Z,97.23
2019-03-31T07:30:20.799Z,110.67
2019-03-31T07:32:50.199Z,105.77
2019-03-31T07:35:19.877Z,106.60
2019-03-31T07:37:49.194Z,101.23
2019-03-31T07:40:21.195Z,97.67
2019-03-31T07:42:51.379Z,95.70
2019-03-31T07:45:21.384Z,86.87
2019-03-31T07:47:50.714Z,76.63
2019-03-31T07:50:20.610Z,88.20
2019-03-31T07:52:49.903Z,85.27
2019-03-31T07:55:19.786Z,93.50
2019-03-31T07:57:49.087Z,82.53
2019-03-31T08:00:20.880Z,86.30
2019-03-31T08:02:50.183Z,84.60
2019-03-31T08:05:32.316Z,85.83
2019-03-31T08:07:52.055Z,82.00
2019-03-31T08:10:21.887Z,81.73
2019-03-31T08:12:51.203Z,82.43
2019-03-31T08:15:20.551Z,77.40
2019-03-31T08:17:49.848Z,84.63
2019-03-31T08:20:20.276Z,88.97
2019-03-31T08:22:49.909Z,83.30
2019-03-31T08:25:19.635Z,79.00
2019-03-31T08:27:48.968Z,78.37
2019-03-31T08:30:18.891Z,86.60
2019-03-31T08:32:48.205Z,78.53
2019-03-31T08:35:17.685Z,65.30
2019-03-31T08:37:46.986Z,76.90
2019-03-31T08:40:16.820Z,76.17
2019-03-31T08:42:46.127Z,75.23
2019-03-31T08:45:15.759Z,76.70
2019-03-31T08:47:45.051Z,79.23
2019-03-31T08:50:14.696Z,79.93
2019-03-31T08:52:43.980Z,83.23
2019-03-31T08:55:13.971Z,74.73
2019-03-31T08:57:43.511Z,79.13
2019-03-31T09:00:14.891Z,78.67
2019-03-31T09:02:44.182Z,77.90
2019-03-31T09:05:14.106Z,74.60
2019-03-31T09:07:43.472Z,74.73
2019-03-31T09:10:15.663Z,69.87
2019-03-31T09:12:48.283Z,75.50
2019-03-31T09:15:16.747Z,79.17
2019-03-31T09:17:46.227Z,68.73
2019-03-31T09:20:16.191Z,69.47
2019-03-31T09:22:45.482Z,77.93
2019-03-31T09:25:15.858Z,66.77
2019-03-31T09:27:45.148Z,79.27
2019-03-31T09:30:15.989Z,72.20
2019-03-31T09:32:45.283Z,71.23
2019-03-31T09:35:14.681Z,62.37
2019-03-31T09:37:44.319Z,71.27
2019-03-31T09:40:14.558Z,73.17
2019-03-31T09:42:43.874Z,69.40
2019-03-31T09:45:14.035Z,76.27
2019-03-31T09:47:43.327Z,74.20
2019-03-31T09:50:17.337Z,73.77
2019-03-31T09:52:45.474Z,76.37
2019-03-31T09:55:16.331Z,76.77
2019-03-31T09:57:45.615Z,74.37
2019-03-31T10:00:34.827Z,81.47
2019-03-31T10:03:04.121Z,82.10
2019-03-31T10:05:33.420Z,82.33
2019-03-31T10:08:02.707Z,82.27
2019-03-31T10:10:33.052Z,83.00
2019-03-31T10:13:02.431Z,84.83
2019-03-31T10:15:31.793Z,79.27
2019-03-31T10:18:01.368Z,87.17
2019-03-31T10:20:31.675Z,80.57
2019-03-31T10:23:01.523Z,83.23
2019-03-31T10:25:30.833Z,83.20
2019-03-31T10:28:00.106Z,84.97
2019-03-31T10:30:37.386Z,83.50
2019-03-31T10:33:07.722Z,82.40
2019-03-31T10:35:37.184Z,77.30
2019-03-31T10:38:07.952Z,77.47
2019-03-31T10:40:37.257Z,81.67
2019-03-31T10:43:06.542Z,73.17
2019-03-31T10:45:35.826Z,82.77
2019-03-31T10:48:19.182Z,78.33
2019-03-31T10:50:36.615Z,85.90
2019-03-31T10:53:06.105Z,85.13
2019-03-31T10:55:35.401Z,81.03
2019-03-31T10:58:04.784Z,88.47
2019-03-31T11:00:37.785Z,83.07
2019-03-31T11:03:08.891Z,88.53
2019-03-31T11:05:38.277Z,88.70
2019-03-31T11:08:07.654Z,96.50
2019-03-31T11:10:37.035Z,75.80
2019-03-31T11:13:06.670Z,91.97
2019-03-31T11:15:35.955Z,87.27
2019-03-31T11:18:05.251Z,82.00
2019-03-31T11:20:34.590Z,81.27
2019-03-31T11:23:09.551Z,84.93
2019-03-31T11:25:38.838Z,63.83
2019-03-31T11:28:08.134Z,76.13
2019-03-31T11:30:37.674Z,71.10
2019-03-31T11:33:07.608Z,72.00
2019-03-31T11:35:37.227Z,58.30
2019-03-31T11:38:06.530Z,67.67
2019-03-31T11:40:35.840Z,62.37
2019-03-31T11:43:05.243Z,67.53
2019-03-31T11:45:34.852Z,62.87
2019-03-31T11:48:04.463Z,63.30
2019-03-31T11:50:33.761Z,62.00
2019-03-31T11:53:03.156Z,68.97
2019-03-31T11:55:32.692Z,50.10
2019-03-31T11:58:02.272Z,65.97
2019-03-31T12:00:33.633Z,56.13
2019-03-31T12:03:03.094Z,58.50
2019-03-31T12:05:32.401Z,60.03
2019-03-31T12:08:01.717Z,57.93
2019-03-31T12:10:32.150Z,48.40
2019-03-31T12:13:01.452Z,48.93
2019-03-31T12:15:30.827Z,44.53
2019-03-31T12:18:00.115Z,42.97
2019-03-31T12:20:29.395Z,46.67
2019-03-31T12:22:58.713Z,43.93
2019-03-31T12:25:28.036Z,43.03
2019-03-31T12:27:57.394Z,52.03
2019-03-31T12:30:27.643Z,44.27
2019-03-31T12:32:57.974Z,38.17
2019-03-31T12:35:27.668Z,47.87
2019-03-31T12:37:57.028Z,52.83
2019-03-31T12:40:34.227Z,43.37
2019-03-31T12:43:04.387Z,39.07
2019-03-31T12:45:34.067Z,44.30
2019-03-31T12:48:03.475Z,39.97
2019-03-31T12:50:33.946Z,41.30
2019-03-31T12:53:03.257Z,35.37
2019-03-31T12:55:32.527Z,40.17
2019-03-31T12:58:01.862Z,35.47
2019-03-31T13:00:31.611Z,35.47
2019-03-31T13:03:00.931Z,38.23
2019-03-31T13:05:30.324Z,31.10
2019-03-31T13:07:59.632Z,32.20
2019-03-31T13:10:28.927Z,29.33
2019-03-31T13:12:58.611Z,33.13
2019-03-31T13:15:28.231Z,36.27
2019-03-31T13:17:57.519Z,29.80
2019-03-31T13:20:27.250Z,39.17
2019-03-31T13:22:56.756Z,30.23
2019-03-31T13:25:26.454Z,32.30
2019-03-31T13:27:55.753Z,35.83
2019-03-31T13:30:25.579Z,34.87
2019-03-31T13:32:55.187Z,33.17
2019-03-31T13:35:24.543Z,29.67
2019-03-31T13:37:54.007Z,30.27
2019-03-31T13:40:23.583Z,31.47
2019-03-31T13:42:52.866Z,29.40
2019-03-31T13:45:22.186Z,29.47
2019-03-31T13:47:51.707Z,29.50
2019-03-31T13:50:21.295Z,29.40
2019-03-31T13:52:50.591Z,31.90
2019-03-31T13:55:19.940Z,31.27
2019-03-31T13:57:50.397Z,28.03
2019-03-31T14:00:26.338Z,27.67
2019-03-31T14:02:55.908Z,25.83
2019-03-31T14:05:25.457Z,33.30
2019-03-31T14:07:54.747Z,30.93
2019-03-31T14:10:24.047Z,27.10
2019-03-31T14:12:53.339Z,30.67
2019-03-31T14:15:22.639Z,34.40
2019-03-31T14:17:51.929Z,30.00
2019-03-31T14:20:22.542Z,24.60
2019-03-31T14:22:52.220Z,28.60
2019-03-31T14:25:21.627Z,30.03
2019-03-31T14:27:51.270Z,29.53
2019-03-31T14:30:20.799Z,30.30
2019-03-31T14:32:50.091Z,29.53
2019-03-31T14:35:19.406Z,33.03
2019-03-31T14:37:49.074Z,27.33
2019-03-31T14:40:18.451Z,28.73
2019-03-31T14:42:47.830Z,25.20
2019-03-31T14:45:31.695Z,25.03
2019-03-31T14:48:01.621Z,24.53
2019-03-31T14:50:36.437Z,25.43
2019-03-31T14:53:06.457Z,23.90
2019-03-31T14:55:36.155Z,22.10
2019-03-31T14:58:07.972Z,28.90
2019-03-31T15:00:37.086Z,19.60
2019-03-31T15:03:06.775Z,25.73
2019-03-31T15:05:36.497Z,23.57
2019-03-31T15:08:05.883Z,24.17
2019-03-31T15:10:35.259Z,20.77
2019-03-31T15:13:05.663Z,18.47
2019-03-31T15:15:35.014Z,21.37
2019-03-31T15:18:05.387Z,25.50
2019-03-31T15:20:36.222Z,18.90
2019-03-31T15:23:05.531Z,21.67
2019-03-31T15:25:34.896Z,18.90
2019-03-31T15:28:04.451Z,19.30
2019-03-31T15:30:33.774Z,19.20
2019-03-31T15:33:03.393Z,19.10
2019-03-31T15:35:33.741Z,17.20
2019-03-31T15:38:03.014Z,16.80
2019-03-31T15:40:32.318Z,15.63
2019-03-31T15:43:01.935Z,14.60
2019-03-31T15:45:31.245Z,18.37
2019-03-31T15:48:00.539Z,18.10
2019-03-31T15:50:29.847Z,15.43
2019-03-31T15:52:59.143Z,18.00
2019-03-31T15:55:28.506Z,15.40
2019-03-31T15:57:57.808Z,14.07
2019-03-31T16:00:27.137Z,15.90
2019-03-31T16:02:56.539Z,19.03
2019-03-31T16:05:25.851Z,16.27
2019-03-31T16:07:55.230Z,16.67
2019-03-31T16:10:24.852Z,16.40
2019-03-31T16:12:54.162Z,17.23
2019-03-31T16:15:23.448Z,14.17
2019-03-31T16:17:52.751Z,13.70
2019-03-31T16:20:22.067Z,16.83
2019-03-31T16:22:51.363Z,15.60
2019-03-31T16:25:22.358Z,12.87
2019-03-31T16:27:51.666Z,15.40
2019-03-31T16:30:20.943Z,14.73
2019-03-31T16:32:50.238Z,18.97
2019-03-31T16:35:19.544Z,14.73
2019-03-31T16:37:49.203Z,13.03
2019-03-31T16:40:18.554Z,13.70
2019-03-31T16:42:48.217Z,15.77
2019-03-31T16:45:17.576Z,16.53
2019-03-31T16:47:47.198Z,12.63
2019-03-31T16:50:17.012Z,18.90
2019-03-31T16:52:46.554Z,12.80
2019-03-31T16:55:16.311Z,11.73
2019-03-31T16:57:46.285Z,16.77
2019-03-31T17:00:16.327Z,13.50
2019-03-31T17:02:45.914Z,14.63
2019-03-31T17:05:22.018Z,11.37
2019-03-31T17:07:46.554Z,15.53
2019-03-31T17:10:16.234Z,11.47
2019-03-31T17:12:45.870Z,11.87
2019-03-31T17:15:15.227Z,15.43
2019-03-31T17:17:44.532Z,13.43
2019-03-31T17:20:14.591Z,12.70
2019-03-31T17:22:44.208Z,12.83
2019-03-31T17:25:13.492Z,11.93
2019-03-31T17:27:42.819Z,12.10
2019-03-31T17:30:12.603Z,16.63
2019-03-31T17:32:42.219Z,13.73
2019-03-31T17:35:11.651Z,12.83
2019-03-31T17:37:40.946Z,13.43
2019-03-31T17:40:10.576Z,10.00
2019-03-31T17:42:39.854Z,10.83
2019-03-31T17:45:09.648Z,11.30
2019-03-31T17:47:38.970Z,15.90
2019-03-31T17:50:10.145Z,11.30
2019-03-31T17:52:39.452Z,16.47
2019-03-31T17:55:08.911Z,12.07
2019-03-31T17:57:38.522Z,10.67
2019-03-31T18:00:11.419Z,12.00
2019-03-31T18:02:40.758Z,12.80
2019-03-31T18:05:10.331Z,13.33
2019-03-31T18:07:39.625Z,11.10
2019-03-31T18:10:19.991Z,14.63
2019-03-31T18:12:40.260Z,10.60
2019-03-31T18:15:10.063Z,13.83
2019-03-31T18:17:39.346Z,10.57
2019-03-31T18:20:08.997Z,10.23
2019-03-31T18:22:38.281Z,10.00
2019-03-31T18:25:08.388Z,9.50
2019-03-31T18:27:38.639Z,13.50
2019-03-31T18:30:08.467Z,10.53
2019-03-31T18:32:38.369Z,10.80
2019-03-31T18:35:08.197Z,10.33
2019-03-31T18:37:37.774Z,11.03
2019-03-31T18:40:08.940Z,9.67
2019-03-31T18:42:38.501Z,10.60
2019-03-31T18:45:08.072Z,12.30
2019-03-31T18:47:37.398Z,8.60
2019-03-31T18:50:07.883Z,11.30
2019-03-31T18:52:37.163Z,11.33
2019-03-31T18:55:13.929Z,11.27
2019-03-31T18:57:50.834Z,8.53
2019-03-31T19:00:38.554Z,10.23
2019-03-31T19:03:24.614Z,10.87
2019-03-31T19:05:55.542Z,11.70
2019-03-31T19:08:35.254Z,11.90
2019-03-31T19:11:14.910Z,15.37
2019-03-31T19:14:01.432Z,15.23
2019-03-31T19:16:35.214Z,14.23
2019-03-31T19:19:11.891Z,12.43
2019-03-31T19:21:51.357Z,13.23
2019-03-31T19:24:38.246Z,10.90
2019-03-31T19:27:11.751Z,11.30
2019-03-31T19:29:45.426Z,10.33
2019-03-31T19:32:32.575Z,11.27
2019-03-31T19:35:06.231Z,11.20
2019-03-31T19:37:43.147Z,10.47
2019-03-31T19:40:19.811Z,8.73
2019-03-31T19:43:07.266Z,11.63
2019-03-31T19:45:55.155Z,12.93
2019-03-31T19:48:35.398Z,14.90
2019-03-31T19:51:09.280Z,9.10
2019-03-31T19:53:46.298Z,13.97
2019-03-31T19:56:20.102Z,13.13
2019-03-31T19:59:03.008Z,15.00
2019-03-31T20:01:36.928Z,11.43
2019-03-31T20:04:07.849Z,13.47
2019-03-31T20:06:38.794Z,13.50
2019-03-31T20:09:19.586Z,13.73
2019-03-31T20:11:53.461Z,10.70
2019-03-31T20:14:30.222Z,9.95
2019-03-31T20:17:19.583Z,10.97
2019-03-31T20:19:50.495Z,9.77
2019-03-31T20:22:27.258Z,10.27
2019-03-31T20:24:58.248Z,6.03
2019-03-31T20:27:38.136Z,11.80
2019-03-31T20:30:18.285Z,14.73
2019-03-31T20:33:07.873Z,8.40
2019-03-31T20:35:41.531Z,8.90
2019-03-31T20:38:12.461Z,7.80
2019-03-31T20:40:46.343Z,10.03
2019-03-31T20:43:29.542Z,11.27
2019-03-31T20:45:58.854Z,11.50
2019-03-31T20:48:28.457Z,10.27
2019-03-31T20:50:57.739Z,11.87
2019-03-31T20:53:27.045Z,10.50
2019-03-31T20:55:56.393Z,14.07
2019-03-31T20:58:26.099Z,9.10
2019-03-31T21:00:55.380Z,13.20
2019-03-31T21:03:24.677Z,6.23
2019-03-31T21:05:53.959Z,11.53
2019-03-31T21:08:23.263Z,10.73
2019-03-31T21:10:52.534Z,10.53
2019-03-31T21:13:21.903Z,11.70
2019-03-31T21:15:51.195Z,15.23
2019-03-31T21:18:20.514Z,9.80
2019-03-31T21:20:49.786Z,12.17
2019-03-31T21:23:19.083Z,13.18
2019-03-31T21:25:48.367Z,6.05
2019-03-31T21:28:17.984Z,12.30
2019-03-31T21:30:47.598Z,8.13
2019-03-31T21:33:17.957Z,17.47
2019-03-31T21:35:48.687Z,11.50
2019-03-31T21:38:18.099Z,10.15
2019-03-31T21:40:47.496Z,10.50
2019-03-31T21:43:17.092Z,10.03
2019-03-31T21:45:47.084Z,8.25
2019-03-31T21:48:16.724Z,9.05
2019-03-31T21:50:46.029Z,9.78
2019-03-31T21:53:15.304Z,8.20
2019-03-31T21:55:44.597Z,11.38
2019-03-31T21:58:13.878Z,9.10
2019-03-31T22:00:51.612Z,10.72
2019-03-31T22:03:21.139Z,8.00
2019-03-31T22:05:50.431Z,7.05
2019-03-31T22:08:19.883Z,6.25
2019-03-31T22:10:49.522Z,8.43
2019-03-31T22:13:18.876Z,10.93
2019-03-31T22:15:49.152Z,6.92
2019-03-31T22:18:18.422Z,8.80
2019-03-31T22:20:47.722Z,6.75
2019-03-31T22:23:17.345Z,8.48
2019-03-31T22:25:47.811Z,4.85
2019-03-31T22:28:17.103Z,10.08
2019-03-31T22:30:46.462Z,8.60
2019-03-31T22:33:16.106Z,4.60
2019-03-31T22:35:47.034Z,13.62
2019-03-31T22:38:16.642Z,7.08
2019-03-31T22:40:46.236Z,7.17
2019-03-31T22:43:15.523Z,8.40
2019-03-31T22:45:44.902Z,6.70
2019-03-31T22:48:14.450Z,9.73
2019-03-31T22:50:45.947Z,8.88
2019-03-31T22:53:15.482Z,6.55
2019-03-31T22:55:44.774Z,7.55
2019-03-31T22:58:14.051Z,7.78
2019-03-31T23:00:43.341Z,9.05
2019-03-31T23:03:14.268Z,9.28
2019-03-31T23:05:43.563Z,14.38
2019-03-31T23:08:13.170Z,8.95
2019-03-31T23:10:42.464Z,6.90
2019-03-31T23:13:11.739Z,7.60
2019-03-31T23:15:41.373Z,7.72
2019-03-31T23:18:10.975Z,5.55
2019-03-31T23:20:40.266Z,10.15
2019-03-31T23:23:09.546Z,7.35
2019-03-31T23:25:38.855Z,11.57
2019-03-31T23:28:08.135Z,9.80
2019-03-31T23:30:37.698Z,7.05
2019-03-31T23:33:06.975Z,8.35
2019-03-31T23:35:36.275Z,5.90
2019-03-31T23:38:05.791Z,9.25
2019-03-31T23:40:35.099Z,11.18
2019-03-31T23:43:04.379Z,8.80
2019-03-31T23:45:34.231Z,8.30
2019-03-31T23:48:03.522Z,6.75
2019-03-31T23:50:32.802Z,11.35
2019-03-31T23:53:02.423Z,6.72
2019-03-31T23:55:31.714Z,6.70
2019-03-31T23:58:01.322Z,9.85
